Time;durP1;ratioP1;P1;durP2;ratioP2;P2;SDS_P1;SDS_P2;PMS_P1;PMS_P2;Temp;Humidity;BMP_temperature;BMP_pressure;BME280_temperature;BME280_humidity;BME280_pressure;Samples;Min_cycle;Max_cycle;Signal;HPM_P1;HPM_P2
2022/12/02 00:00:52;;;;;;;;;;;4.00;76.70;;;;;;5040986;28;93064;-39
2022/12/02 00:03:19;;;;;;;;;;;4.00;76.70;;;;;;5041908;28;92110;-39
2022/12/02 00:05:46;;;;;;;;;;;4.00;76.60;;;;;;5041626;27;93718;-39
2022/12/02 00:08:23;;;;;;;;;;;4.00;76.60;;;;;;5041057;28;94798;-39
2022/12/02 00:10:50;;;;;;;;;;;4.00;76.60;;;;;;5041773;28;92157;-39
2022/12/02 00:13:18;;;;;;;;;;;4.00;76.70;;;;;;5044523;27;92351;-39
2022/12/02 00:15:44;;;;;;;;;;;4.00;76.70;;;;;;5042248;28;91423;-39
2022/12/02 00:18:11;;;;;;;;;;;4.00;76.60;;;;;;5041894;28;92213;-39
2022/12/02 00:20:36;;;;;;;;;;;4.00;76.50;;;;;;5041339;28;92446;-39
2022/12/02 00:23:02;;;;;;;;;;;3.90;76.60;;;;;;5041086;28;93077;-39
2022/12/02 00:25:28;;;;;;;;;;;3.90;76.60;;;;;;5041727;28;93385;-39
2022/12/02 00:27:53;;;;;;;;;;;3.90;76.70;;;;;;5041067;28;92627;-39
2022/12/02 00:30:19;;;;;;;;;;;3.90;76.60;;;;;;5041539;28;92121;-39
2022/12/02 00:32:44;;;;;;;;;;;4.00;76.60;;;;;;5041701;28;92326;-39
2022/12/02 00:35:10;;;;;;;;;;;3.90;76.60;;;;;;5044093;28;92258;-39
2022/12/02 00:37:35;;;;;;;;;;;4.00;76.70;;;;;;5041325;27;93685;-39
2022/12/02 00:40:01;;;;;;;;;;;3.90;76.60;;;;;;5041611;28;92576;-39
2022/12/02 00:42:26;;;;;;;;;;;3.90;76.60;;;;;;5041467;28;92156;-39
2022/12/02 00:47:40;;;;;;;;;;;3.90;76.60;;;;;;5038371;28;93485;-39
2022/12/02 00:50:06;;;;;;;;;;;3.90;76.60;;;;;;5040949;28;92023;-39
2022/12/02 00:52:31;;;;;;;;;;;3.90;76.70;;;;;;5041290;27;92302;-39
2022/12/02 00:54:57;;;;;;;;;;;3.90;76.60;;;;;;5043814;28;93459;-39
2022/12/02 00:57:22;;;;;;;;;;;3.90;76.60;;;;;;5041078;28;92396;-39
2022/12/02 00:59:48;;;;;;;;;;;3.90;76.60;;;;;;5040492;28;93021;-39
2022/12/02 01:02:13;;;;;;;;;;;3.90;76.60;;;;;;5041343;28;92192;-39
2022/12/02 01:04:39;;;;;;;;;;;3.90;76.60;;;;;;5041642;28;92408;-39
2022/12/02 01:07:04;;;;;;;;;;;3.90;76.60;;;;;;5040541;28;93073;-39
2022/12/02 01:09:30;;;;;;;;;;;3.90;76.60;;;;;;5040627;28;92041;-39
2022/12/02 01:11:55;;;;;;;;;;;3.90;76.60;;;;;;5039948;28;93108;-39
2022/12/02 01:14:21;;;;;;;;;;;3.90;76.70;;;;;;5040192;28;93151;-39
2022/12/02 01:16:46;;;;;;;;;;;3.90;76.60;;;;;;5044053;28;92271;-39
2022/12/02 01:19:12;;;;;;;;;;;3.90;76.60;;;;;;5040168;28;93369;-39
2022/12/02 01:21:37;;;;;;;;;;;3.90;76.70;;;;;;5040954;28;92148;-39
2022/12/02 01:24:03;;;;;;;;;;;3.90;76.50;;;;;;5040975;28;92334;-39
2022/12/02 01:26:28;;;;;;;;;;;3.90;76.60;;;;;;5040173;28;92596;-39
2022/12/02 01:28:54;;;;;;;;;;;3.90;76.70;;;;;;5040803;28;92085;-39
2022/12/02 01:31:19;;;;;;;;;;;3.90;76.60;;;;;;5040374;27;92204;-39
2022/12/02 01:33:45;;;;;;;;;;;3.90;76.60;;;;;;5040211;28;93123;-39
2022/12/02 01:36:10;;;;;;;;;;;3.90;76.60;;;;;;5039659;28;93161;-39
2022/12/02 01:38:36;;;;;;;;;;;3.90;76.70;;;;;;5043083;28;93246;-39
2022/12/02 01:41:01;;;;;;;;;;;3.90;76.60;;;;;;5040312;28;92127;-39
2022/12/02 01:43:27;;;;;;;;;;;3.90;76.70;;;;;;5040414;28;92232;-39
2022/12/02 01:45:52;;;;;;;;;;;3.90;76.70;;;;;;5039784;28;92532;-39
2022/12/02 01:48:18;;;;;;;;;;;3.90;76.60;;;;;;5040057;28;92047;-39
2022/12/02 01:50:44;;;;;;;;;;;3.90;76.60;;;;;;5040294;27;92316;-39
2022/12/02 01:53:10;;;;;;;;;;;3.80;76.60;;;;;;5040094;28;92299;-39
2022/12/02 01:55:35;;;;;;;;;;;3.80;76.60;;;;;;5040139;28;92054;-39
2022/12/02 01:58:01;;;;;;;;;;;3.80;76.60;;;;;;5039978;28;92679;-39
2022/12/02 02:00:27;;;;;;;;;;;3.80;76.70;;;;;;5040484;28;97349;-39
2022/12/02 02:02:53;;;;;;;;;;;3.90;76.80;;;;;;5040129;28;93286;-39
2022/12/02 02:05:21;;;;;;;;;;;3.80;76.80;;;;;;5039343;28;94354;-39
2022/12/02 02:07:48;;;;;;;;;;;3.80;76.80;;;;;;5039968;28;92127;-39
2022/12/02 02:10:14;;;;;;;;;;;3.90;76.60;;;;;;5039872;28;92441;-39
2022/12/02 02:12:39;;;;;;;;;;;3.80;76.60;;;;;;5039371;28;93161;-39
2022/12/02 02:15:06;;;;;;;;;;;3.80;76.80;;;;;;5040191;28;92440;-39
2022/12/02 02:17:32;;;;;;;;;;;3.80;76.70;;;;;;5040640;27;92158;-39
2022/12/02 02:19:57;;;;;;;;;;;3.80;76.60;;;;;;5039194;28;93184;-39
2022/12/02 02:22:44;;;;;;;;;;;3.80;76.60;;;;;;5041978;28;92050;-39
2022/12/02 02:25:12;;;;;;;;;;;3.80;76.60;;;;;;5038646;28;93500;-39
2022/12/02 02:27:37;;;;;;;;;;;3.80;76.60;;;;;;5039497;28;92123;-39
2022/12/02 02:30:03;;;;;;;;;;;3.80;76.80;;;;;;5039831;28;92576;-39
2022/12/02 02:32:29;;;;;;;;;;;3.80;76.60;;;;;;5038902;28;93990;-39
2022/12/02 02:34:54;;;;;;;;;;;3.80;76.70;;;;;;5039910;28;93225;-39
2022/12/02 02:37:20;;;;;;;;;;;3.80;76.70;;;;;;5039690;28;92372;-39
2022/12/02 02:39:45;;;;;;;;;;;3.80;76.60;;;;;;5038880;28;92640;-39
2022/12/02 02:42:11;;;;;;;;;;;3.80;76.70;;;;;;5040088;28;91444;-39
2022/12/02 02:44:36;;;;;;;;;;;3.80;76.90;;;;;;5041540;28;92197;-39
2022/12/02 02:47:02;;;;;;;;;;;3.80;76.80;;;;;;5039875;28;92114;-39
2022/12/02 02:49:27;;;;;;;;;;;3.70;76.70;;;;;;5039052;28;92927;-39
2022/12/02 02:51:53;;;;;;;;;;;3.70;76.90;;;;;;5039018;28;93195;-39
2022/12/02 02:54:18;;;;;;;;;;;3.80;76.80;;;;;;5039441;28;92168;-39
2022/12/02 02:56:44;;;;;;;;;;;3.70;76.80;;;;;;5039638;27;92436;-39
2022/12/02 02:59:14;;;;;;;;;;;3.70;77.00;;;;;;5038799;28;92098;-39
2022/12/02 03:01:40;;;;;;;;;;;3.70;76.80;;;;;;5039297;28;92515;-39
2022/12/02 03:04:08;;;;;;;;;;;3.80;76.80;;;;;;5042068;27;92340;-39
2022/12/02 03:06:34;;;;;;;;;;;3.80;76.60;;;;;;5039842;28;91083;-39
2022/12/02 03:09:01;;;;;;;;;;;3.80;76.60;;;;;;5039404;27;91858;-39
2022/12/02 03:11:27;;;;;;;;;;;3.70;76.80;;;;;;5038504;28;93481;-39
2022/12/02 03:13:52;;;;;;;;;;;3.70;76.80;;;;;;5038554;28;93413;-39
2022/12/02 03:16:20;;;;;;;;;;;3.70;76.70;;;;;;5039290;28;93101;-39
2022/12/02 03:18:46;;;;;;;;;;;3.70;76.80;;;;;;5038466;28;93210;-39
2022/12/02 03:21:13;;;;;;;;;;;3.80;76.80;;;;;;5039006;28;92090;-39
2022/12/02 03:23:38;;;;;;;;;;;3.70;76.60;;;;;;5038856;28;92558;-39
2022/12/02 03:26:04;;;;;;;;;;;3.70;76.70;;;;;;5041725;28;92374;-39
2022/12/02 03:28:31;;;;;;;;;;;3.70;76.80;;;;;;5039008;27;92283;-39
2022/12/02 03:30:56;;;;;;;;;;;3.70;76.70;;;;;;5038804;28;92284;-39
2022/12/02 03:33:22;;;;;;;;;;;3.70;76.60;;;;;;5040005;27;92102;-39
2022/12/02 03:35:48;;;;;;;;;;;3.70;76.90;;;;;;5042559;27;92248;-39
2022/12/02 03:38:14;;;;;;;;;;;3.70;76.90;;;;;;5041069;28;94198;-39
2022/12/02 03:40:39;;;;;;;;;;;3.60;76.90;;;;;;5042411;28;92144;-39
2022/12/02 03:43:05;;;;;;;;;;;3.60;77.10;;;;;;5042713;27;92258;-39
2022/12/02 03:45:31;;;;;;;;;;;3.60;77.00;;;;;;5041338;28;93095;-39
2022/12/02 03:47:57;;;;;;;;;;;3.70;76.90;;;;;;5045350;28;92146;-39
2022/12/02 03:50:22;;;;;;;;;;;3.70;76.80;;;;;;5041603;28;93057;-39
2022/12/02 03:52:48;;;;;;;;;;;3.60;77.10;;;;;;5042256;28;92163;-39
2022/12/02 03:55:13;;;;;;;;;;;3.70;76.90;;;;;;5042176;27;93825;-39
2022/12/02 03:57:41;;;;;;;;;;;3.70;76.90;;;;;;5041545;28;93392;-39
2022/12/02 04:00:07;;;;;;;;;;;3.70;76.70;;;;;;5041998;28;92093;-39
2022/12/02 04:02:33;;;;;;;;;;;3.70;77.00;;;;;;5041288;27;93466;-39
2022/12/02 04:04:58;;;;;;;;;;;3.60;77.00;;;;;;5041484;28;93087;-39
2022/12/02 04:07:24;;;;;;;;;;;3.60;77.10;;;;;;5042004;28;92047;-39
2022/12/02 04:09:49;;;;;;;;;;;3.60;77.00;;;;;;5043944;27;93836;-39
2022/12/02 04:12:15;;;;;;;;;;;3.60;77.00;;;;;;5041980;28;92136;-39
2022/12/02 04:14:40;;;;;;;;;;;3.70;76.80;;;;;;5042081;28;92376;-39
2022/12/02 04:17:06;;;;;;;;;;;3.60;76.80;;;;;;5041472;28;92891;-39
2022/12/02 04:19:31;;;;;;;;;;;3.70;76.90;;;;;;5042352;28;91421;-39
2022/12/02 04:21:57;;;;;;;;;;;3.60;76.90;;;;;;5041922;28;92118;-39
2022/12/02 04:24:23;;;;;;;;;;;3.60;77.10;;;;;;5040597;28;93419;-39
2022/12/02 04:26:48;;;;;;;;;;;3.70;76.70;;;;;;5040793;28;93146;-39
2022/12/02 04:29:14;;;;;;;;;;;3.60;76.70;;;;;;5041614;28;93398;-39
2022/12/02 04:31:39;;;;;;;;;;;3.60;76.90;;;;;;5044192;28;94464;-39
2022/12/02 04:34:05;;;;;;;;;;;3.60;76.90;;;;;;5041598;28;93002;-39
2022/12/02 04:36:30;;;;;;;;;;;3.60;77.00;;;;;;5041208;28;93003;-39
2022/12/02 04:38:56;;;;;;;;;;;3.60;77.00;;;;;;5041048;28;92174;-39
2022/12/02 04:41:21;;;;;;;;;;;3.60;77.10;;;;;;5041434;28;93015;-39
2022/12/02 04:43:47;;;;;;;;;;;3.60;77.00;;;;;;5041136;28;93538;-38
2022/12/02 04:46:12;;;;;;;;;;;3.60;77.00;;;;;;5040446;27;92325;-39
2022/12/02 04:48:38;;;;;;;;;;;3.60;77.20;;;;;;5041524;28;92356;-39
2022/12/02 04:51:03;;;;;;;;;;;3.50;77.20;;;;;;5040162;28;93393;-39
2022/12/02 04:53:29;;;;;;;;;;;3.50;77.20;;;;;;5044232;28;92127;-39
2022/12/02 04:55:54;;;;;;;;;;;3.60;77.20;;;;;;5040427;28;93161;-39
2022/12/02 04:58:20;;;;;;;;;;;3.60;77.10;;;;;;5040917;28;92132;-39
2022/12/02 05:00:45;;;;;;;;;;;3.60;77.00;;;;;;5041195;28;92588;-39
2022/12/02 05:03:11;;;;;;;;;;;3.60;77.10;;;;;;5040644;28;93130;-39
2022/12/02 05:05:36;;;;;;;;;;;3.60;76.80;;;;;;5041107;28;92321;-39
2022/12/02 05:08:02;;;;;;;;;;;3.60;77.10;;;;;;5041539;28;92385;-39
2022/12/02 05:10:27;;;;;;;;;;;3.60;77.10;;;;;;5040129;28;92153;-39
2022/12/02 05:12:53;;;;;;;;;;;3.50;77.20;;;;;;5044124;28;93404;-39
2022/12/02 05:15:21;;;;;;;;;;;3.50;77.10;;;;;;5039638;28;94032;-39
2022/12/02 05:17:46;;;;;;;;;;;3.60;77.20;;;;;;5040643;28;92127;-39
2022/12/02 05:20:12;;;;;;;;;;;3.50;77.10;;;;;;5040633;27;93571;-39
2022/12/02 05:22:39;;;;;;;;;;;3.50;77.20;;;;;;5040041;28;94095;-39
2022/12/02 05:25:05;;;;;;;;;;;3.60;77.30;;;;;;5040599;28;92125;-39
2022/12/02 05:27:30;;;;;;;;;;;3.60;77.00;;;;;;5040805;27;92292;-39
2022/12/02 05:29:56;;;;;;;;;;;3.50;77.10;;;;;;5040270;28;93260;-39
2022/12/02 05:32:21;;;;;;;;;;;3.50;77.20;;;;;;5041143;28;91483;-39
2022/12/02 05:34:47;;;;;;;;;;;3.50;77.20;;;;;;5043157;28;92013;-39
2022/12/02 05:37:12;;;;;;;;;;;3.60;77.20;;;;;;5040613;28;92099;-39
2022/12/02 05:39:38;;;;;;;;;;;3.50;77.10;;;;;;5039646;28;92997;-39
2022/12/02 05:42:07;;;;;;;;;;;3.50;77.30;;;;;;5039923;28;93379;-39
2022/12/02 05:44:33;;;;;;;;;;;3.50;77.70;;;;;;5040154;28;92341;-39
2022/12/02 05:47:00;;;;;;;;;;;3.50;77.20;;;;;;5040274;27;93645;-38
2022/12/02 05:49:26;;;;;;;;;;;3.50;77.10;;;;;;5039876;28;93002;-39
2022/12/02 05:51:54;;;;;;;;;;;3.50;77.20;;;;;;5040430;28;92151;-39
2022/12/02 05:54:20;;;;;;;;;;;3.60;77.20;;;;;;5040289;27;92440;-39
2022/12/02 05:56:46;;;;;;;;;;;3.50;76.90;;;;;;5043309;28;93759;-39
2022/12/02 05:59:16;;;;;;;;;;;3.50;77.00;;;;;;5040194;27;91983;-39
2022/12/02 06:01:42;;;;;;;;;;;3.50;77.30;;;;;;5039657;28;92835;-39
2022/12/02 06:04:11;;;;;;;;;;;3.50;77.10;;;;;;5039516;28;93446;-39
2022/12/02 06:06:36;;;;;;;;;;;3.50;77.10;;;;;;5040101;27;93215;-39
2022/12/02 06:09:10;;;;;;;;;;;3.50;77.10;;;;;;5039503;28;93018;-39
2022/12/02 06:11:37;;;;;;;;;;;3.50;77.20;;;;;;5040024;28;92533;-39
2022/12/02 06:14:17;;;;;;;;;;;3.50;77.30;;;;;;5039618;28;93883;-39
2022/12/02 06:16:53;;;;;;;;;;;3.50;77.10;;;;;;5039293;28;93017;-39
2022/12/02 06:19:21;;;;;;;;;;;3.40;77.20;;;;;;5042795;28;93230;-39
2022/12/02 06:21:47;;;;;;;;;;;3.50;77.20;;;;;;5039957;28;92318;-39
2022/12/02 06:24:12;;;;;;;;;;;3.50;77.20;;;;;;5040015;28;92198;-39
2022/12/02 06:26:38;;;;;;;;;;;3.50;77.20;;;;;;5039927;27;92348;-39
2022/12/02 06:29:04;;;;;;;;;;;3.40;77.20;;;;;;5038580;28;93986;-39
2022/12/02 06:31:36;;;;;;;;;;;3.40;77.20;;;;;;5039751;28;92484;-39
2022/12/02 06:34:19;;;;;;;;;;;3.40;77.30;;;;;;5039170;27;93015;-39
2022/12/02 06:36:44;;;;;;;;;;;3.50;77.30;;;;;;5038151;28;93193;-39
2022/12/02 06:39:20;;;;;;;;;;;3.50;77.20;;;;;;5039126;28;92153;-39
2022/12/02 06:41:46;;;;;;;;;;;3.40;77.20;;;;;;5042157;27;92425;-39
2022/12/02 06:46:58;;;;;;;;;;;3.50;77.30;;;;;;5040100;28;91385;-39
2022/12/02 06:49:28;;;;;;;;;;;3.50;77.20;;;;;;5039114;28;93111;-39
2022/12/02 06:52:04;;;;;;;;;;;3.40;77.10;;;;;;5039553;28;91950;-39
2022/12/02 06:54:31;;;;;;;;;;;3.50;77.20;;;;;;5039220;27;93013;-39
2022/12/02 06:56:57;;;;;;;;;;;3.50;77.20;;;;;;5038757;28;92922;-39
2022/12/02 06:59:23;;;;;;;;;;;3.50;77.20;;;;;;5039244;28;92142;-39
2022/12/02 07:01:56;;;;;;;;;;;3.40;77.10;;;;;;5042030;28;92393;-39
2022/12/02 07:04:24;;;;;;;;;;;3.40;77.30;;;;;;5039221;28;92242;-39
2022/12/02 07:06:51;;;;;;;;;;;3.40;77.20;;;;;;5039273;28;92351;-39
2022/12/02 07:09:23;;;;;;;;;;;3.40;77.40;;;;;;5043734;27;94197;-39
2022/12/02 07:11:50;;;;;;;;;;;3.40;77.40;;;;;;5046208;28;91375;-39
2022/12/02 07:14:18;;;;;;;;;;;3.40;77.30;;;;;;5045981;28;92254;-39
2022/12/02 07:16:44;;;;;;;;;;;3.40;77.30;;;;;;5045145;28;94655;-39
2022/12/02 07:19:14;;;;;;;;;;;3.40;77.20;;;;;;5045057;28;92977;-39
2022/12/02 07:21:40;;;;;;;;;;;3.40;77.20;;;;;;5045783;27;93253;-39
2022/12/02 07:24:07;;;;;;;;;;;3.40;77.30;;;;;;5048092;28;92834;-39
2022/12/02 07:26:32;;;;;;;;;;;3.40;77.40;;;;;;5045894;27;92285;-39
2022/12/02 07:28:59;;;;;;;;;;;3.40;77.20;;;;;;5045254;28;93032;-39
2022/12/02 07:31:26;;;;;;;;;;;3.40;77.40;;;;;;5045783;28;92241;-39
2022/12/02 07:33:51;;;;;;;;;;;3.40;77.30;;;;;;5045701;28;93183;-39
2022/12/02 07:36:17;;;;;;;;;;;3.40;77.20;;;;;;5045602;28;92247;-39
2022/12/02 07:38:43;;;;;;;;;;;3.40;77.30;;;;;;5045533;28;92300;-39
2022/12/02 07:41:08;;;;;;;;;;;3.40;77.20;;;;;;5045125;27;94452;-39
2022/12/02 07:43:34;;;;;;;;;;;3.40;77.30;;;;;;5044699;28;94214;-39
2022/12/02 07:45:59;;;;;;;;;;;3.40;77.30;;;;;;5048339;28;92099;-39
2022/12/02 07:48:25;;;;;;;;;;;3.40;77.20;;;;;;5045098;28;92979;-39
2022/12/02 07:50:50;;;;;;;;;;;3.40;77.40;;;;;;5045242;28;92105;-39
2022/12/02 07:53:16;;;;;;;;;;;3.40;77.40;;;;;;5045567;27;92253;-39
2022/12/02 07:55:41;;;;;;;;;;;3.40;77.40;;;;;;5044839;28;93068;-39
2022/12/02 07:58:07;;;;;;;;;;;3.30;77.30;;;;;;5045425;28;92169;-39
2022/12/02 08:00:35;;;;;;;;;;;3.40;77.50;;;;;;5046036;28;91320;-39
2022/12/02 08:03:00;;;;;;;;;;;3.40;77.30;;;;;;5044913;28;92161;-39
2022/12/02 08:05:26;;;;;;;;;;;3.40;77.10;;;;;;5045233;28;92176;-39
2022/12/02 08:07:51;;;;;;;;;;;3.40;77.20;;;;;;5047476;28;92888;-39
2022/12/02 08:10:17;;;;;;;;;;;3.40;77.40;;;;;;5044673;28;92228;-39
2022/12/02 08:13:01;;;;;;;;;;;3.40;77.30;;;;;;5045275;28;92012;-39
2022/12/02 08:15:26;;;;;;;;;;;3.40;77.20;;;;;;5044756;27;93762;-39
2022/12/02 08:17:52;;;;;;;;;;;3.40;77.30;;;;;;5045283;28;92160;-39
2022/12/02 08:20:17;;;;;;;;;;;3.40;77.40;;;;;;5041892;27;92489;-39
2022/12/02 08:22:43;;;;;;;;;;;3.40;77.80;;;;;;5040701;28;94586;-39
2022/12/02 08:25:08;;;;;;;;;;;3.40;77.30;;;;;;5042165;28;91553;-39
2022/12/02 08:27:34;;;;;;;;;;;3.40;77.20;;;;;;5041740;27;92100;-39
2022/12/02 08:30:00;;;;;;;;;;;3.40;77.20;;;;;;5044237;28;93005;-39
2022/12/02 08:32:25;;;;;;;;;;;3.40;77.30;;;;;;5040723;27;93080;-39
2022/12/02 08:34:51;;;;;;;;;;;3.40;77.00;;;;;;5041130;28;93205;-39
2022/12/02 08:37:16;;;;;;;;;;;3.40;77.20;;;;;;5041335;28;92204;-39
2022/12/02 08:39:42;;;;;;;;;;;3.40;77.20;;;;;;5041359;28;92380;-39
2022/12/02 08:42:07;;;;;;;;;;;3.40;77.20;;;;;;5040996;28;93200;-39
2022/12/02 08:44:33;;;;;;;;;;;3.40;77.30;;;;;;5041223;28;92159;-39
2022/12/02 08:46:59;;;;;;;;;;;3.40;77.20;;;;;;5041730;27;92493;-39
2022/12/02 08:49:24;;;;;;;;;;;3.40;77.20;;;;;;5041489;28;91792;-39
2022/12/02 08:51:50;;;;;;;;;;;3.40;77.40;;;;;;5044315;28;92154;-39
2022/12/02 08:54:15;;;;;;;;;;;3.40;77.30;;;;;;5040522;28;93755;-39
2022/12/02 08:56:41;;;;;;;;;;;3.40;77.20;;;;;;5040773;28;93128;-39
2022/12/02 08:59:07;;;;;;;;;;;3.40;77.20;;;;;;5040884;27;94701;-39
2022/12/02 09:01:32;;;;;;;;;;;3.40;77.30;;;;;;5040672;28;93545;-39
2022/12/02 09:03:58;;;;;;;;;;;3.40;77.30;;;;;;5041477;28;92191;-39
2022/12/02 09:06:23;;;;;;;;;;;3.40;77.30;;;;;;5041167;27;92516;-39
2022/12/02 09:08:49;;;;;;;;;;;3.40;77.40;;;;;;5040451;28;92997;-39
2022/12/02 09:11:14;;;;;;;;;;;3.40;77.30;;;;;;5043958;28;92194;-39
2022/12/02 09:13:40;;;;;;;;;;;3.40;77.40;;;;;;5041080;28;92214;-39
2022/12/02 09:16:06;;;;;;;;;;;3.40;77.30;;;;;;5041016;28;92183;-39
2022/12/02 09:18:31;;;;;;;;;;;3.40;77.40;;;;;;5040881;28;92358;-39
2022/12/02 09:20:57;;;;;;;;;;;3.40;77.40;;;;;;5039905;28;94493;-39
2022/12/02 09:23:22;;;;;;;;;;;3.40;77.40;;;;;;5040522;28;92214;-39
2022/12/02 09:25:48;;;;;;;;;;;3.40;77.30;;;;;;5040433;27;93809;-39
2022/12/02 09:28:13;;;;;;;;;;;3.40;77.50;;;;;;5040245;28;93127;-39
2022/12/02 09:30:39;;;;;;;;;;;3.40;77.30;;;;;;5040623;28;92218;-39
2022/12/02 09:33:04;;;;;;;;;;;3.40;77.90;;;;;;5043074;27;93851;-39
2022/12/02 09:35:30;;;;;;;;;;;3.40;77.40;;;;;;5040889;28;92225;-39
2022/12/02 09:37:55;;;;;;;;;;;3.40;77.40;;;;;;5041097;28;92446;-39
2022/12/02 09:40:21;;;;;;;;;;;3.40;77.40;;;;;;5039912;28;92882;-39
2022/12/02 09:42:46;;;;;;;;;;;3.40;77.40;;;;;;5040439;28;92224;-39
2022/12/02 09:45:12;;;;;;;;;;;3.40;77.40;;;;;;5039266;27;93142;-39
2022/12/02 09:47:39;;;;;;;;;;;3.40;77.70;;;;;;5040067;28;93022;-39
2022/12/02 09:50:04;;;;;;;;;;;3.40;77.60;;;;;;5040375;28;92148;-39
2022/12/02 09:52:30;;;;;;;;;;;3.40;77.60;;;;;;5040349;27;92314;-39
2022/12/02 09:54:57;;;;;;;;;;;3.40;77.40;;;;;;5042924;28;93157;-39
2022/12/02 09:57:30;;;;;;;;;;;3.40;77.70;;;;;;5040284;28;92305;-39
2022/12/02 09:59:57;;;;;;;;;;;3.30;77.50;;;;;;5039505;28;92314;-39
2022/12/02 10:02:28;;;;;;;;;;;3.40;77.60;;;;;;5040565;28;91515;-39
2022/12/02 10:04:56;;;;;;;;;;;3.40;77.60;;;;;;5039949;28;93487;-39
2022/12/02 10:07:21;;;;;;;;;;;3.40;77.50;;;;;;5039346;28;94434;-39
2022/12/02 10:09:47;;;;;;;;;;;3.40;77.60;;;;;;5039675;28;93112;-39
2022/12/02 10:12:12;;;;;;;;;;;3.40;77.70;;;;;;5039781;28;94001;-39
2022/12/02 10:14:38;;;;;;;;;;;3.40;77.70;;;;;;5039544;28;93024;-39
2022/12/02 10:17:13;;;;;;;;;;;3.40;77.90;;;;;;5043361;28;92789;-39
2022/12/02 10:19:39;;;;;;;;;;;3.40;77.90;;;;;;5038840;28;94393;-39
2022/12/02 10:22:11;;;;;;;;;;;3.40;77.80;;;;;;5040085;28;92159;-39
2022/12/02 10:24:37;;;;;;;;;;;3.40;77.70;;;;;;5040050;28;92475;-39
2022/12/02 10:27:03;;;;;;;;;;;3.40;77.80;;;;;;5039859;28;92512;-39
2022/12/02 10:29:29;;;;;;;;;;;3.40;77.60;;;;;;5039825;28;92196;-39
2022/12/02 10:31:59;;;;;;;;;;;3.40;77.60;;;;;;5039594;27;93699;-39
2022/12/02 10:34:25;;;;;;;;;;;3.40;77.80;;;;;;5038601;28;94268;-39
2022/12/02 10:36:51;;;;;;;;;;;3.40;77.70;;;;;;5039657;28;92283;-39
2022/12/02 10:39:19;;;;;;;;;;;3.40;77.70;;;;;;5042327;27;92457;-39
2022/12/02 10:41:46;;;;;;;;;;;3.40;78.10;;;;;;5039488;28;92128;-39
2022/12/02 10:44:13;;;;;;;;;;;3.40;77.80;;;;;;5038532;27;92280;-39
2022/12/02 10:46:38;;;;;;;;;;;3.30;77.90;;;;;;5038986;28;94522;-40
2022/12/02 10:49:15;;;;;;;;;;;3.40;77.90;;;;;;5039097;28;92203;-40
2022/12/02 10:51:40;;;;;;;;;;;3.40;78.20;;;;;;5039858;27;92342;-40
2022/12/02 10:54:09;;;;;;;;;;;3.40;78.10;;;;;;5039070;28;92968;-40
2022/12/02 10:56:35;;;;;;;;;;;3.40;78.00;;;;;;5039131;28;92017;-40
2022/12/02 10:59:01;;;;;;;;;;;3.40;78.10;;;;;;5038595;28;93172;-39
2022/12/02 11:01:27;;;;;;;;;;;3.40;78.10;;;;;;5041591;28;94433;-39
2022/12/02 11:03:54;;;;;;;;;;;3.40;78.10;;;;;;5039195;28;92413;-39
2022/12/02 11:06:19;;;;;;;;;;;3.40;78.00;;;;;;5038488;28;93478;-39
2022/12/02 11:08:46;;;;;;;;;;;3.40;78.10;;;;;;5039413;28;92048;-39
2022/12/02 11:11:11;;;;;;;;;;;3.40;77.90;;;;;;5039038;28;92524;-39
2022/12/02 11:13:46;;;;;;;;;;;3.40;78.70;;;;;;5038639;28;93413;-39
2022/12/02 11:16:27;;;;;;;;;;;3.40;78.20;;;;;;5039405;28;91837;-40
2022/12/02 11:18:57;;;;;;;;;;;3.40;78.00;;;;;;5039085;28;92005;-39
2022/12/02 11:21:28;;;;;;;;;;;3.40;78.00;;;;;;5041451;28;93505;-39
2022/12/02 11:24:12;;;;;;;;;;;3.50;77.90;;;;;;5038631;28;93053;-39
2022/12/02 11:26:56;;;;;;;;;;;3.50;77.80;;;;;;5038449;27;93310;-40
2022/12/02 11:29:21;;;;;;;;;;;3.50;77.90;;;;;;5038913;27;92301;-39
2022/12/02 11:32:02;;;;;;;;;;;3.50;78.10;;;;;;5038984;28;92531;-39
2022/12/02 11:34:41;;;;;;;;;;;3.40;78.20;;;;;;5038485;28;93037;-40
2022/12/02 11:37:28;;;;;;;;;;;3.40;78.10;;;;;;5038473;28;92137;-39
2022/12/02 11:39:56;;;;;;;;;;;3.40;78.10;;;;;;5038553;27;93618;-39
2022/12/02 11:42:21;;;;;;;;;;;3.40;78.40;;;;;;5038768;28;92397;-39
2022/12/02 11:44:47;;;;;;;;;;;3.40;78.10;;;;;;5041286;28;92162;-39
2022/12/02 11:47:28;;;;;;;;;;;3.40;78.00;;;;;;5038464;28;93001;-39
2022/12/02 11:49:55;;;;;;;;;;;3.40;78.00;;;;;;5037839;28;93061;-39
2022/12/02 11:52:22;;;;;;;;;;;3.40;78.10;;;;;;5038679;28;93513;-39
2022/12/02 11:54:54;;;;;;;;;;;3.40;78.40;;;;;;5039350;27;94688;-39
2022/12/02 11:57:26;;;;;;;;;;;3.40;78.40;;;;;;5041945;28;92594;-39
2022/12/02 11:59:52;;;;;;;;;;;3.40;78.50;;;;;;5042031;27;92661;-39
2022/12/02 12:02:19;;;;;;;;;;;3.40;78.40;;;;;;5041477;28;92413;-39
2022/12/02 12:04:45;;;;;;;;;;;3.40;78.10;;;;;;5042092;28;92148;-39
2022/12/02 12:07:11;;;;;;;;;;;3.50;78.00;;;;;;5045044;27;93786;-39
2022/12/02 12:09:36;;;;;;;;;;;3.40;78.10;;;;;;5041967;28;92223;-39
2022/12/02 12:12:09;;;;;;;;;;;3.40;78.30;;;;;;5041885;28;92362;-40
2022/12/02 12:15:10;;;;;;;;;;;3.40;78.50;;;;;;5040288;28;94499;-39
2022/12/02 12:17:38;;;;;;;;;;;3.40;78.30;;;;;;4999517;28;95001;-39
2022/12/02 12:20:24;;;;;;;;;;;3.40;78.40;;;;;;5033417;28;92412;-39
2022/12/02 12:22:50;;;;;;;;;;;3.40;78.50;;;;;;5033208;28;93114;-40
2022/12/02 12:25:29;;;;;;;;;;;3.40;78.50;;;;;;5041387;28;92260;-40
2022/12/02 12:27:54;;;;;;;;;;;3.40;78.60;;;;;;5041628;27;93711;-39
2022/12/02 12:30:20;;;;;;;;;;;3.40;78.70;;;;;;5044216;28;93197;-39
2022/12/02 12:32:45;;;;;;;;;;;3.40;78.50;;;;;;5042339;28;91577;-39
2022/12/02 12:35:11;;;;;;;;;;;3.40;78.60;;;;;;5041081;28;93199;-39
2022/12/02 12:37:36;;;;;;;;;;;3.40;78.60;;;;;;5041324;28;92185;-39
2022/12/02 12:40:02;;;;;;;;;;;3.50;78.40;;;;;;5040506;28;93033;-40
2022/12/02 12:42:28;;;;;;;;;;;3.40;78.70;;;;;;5041037;28;93620;-40
2022/12/02 12:44:53;;;;;;;;;;;3.40;78.70;;;;;;5041304;28;92188;-40
2022/12/02 12:47:19;;;;;;;;;;;3.40;78.80;;;;;;5041575;28;92451;-39
2022/12/02 12:49:44;;;;;;;;;;;3.40;78.80;;;;;;5040773;28;92941;-39
2022/12/02 12:52:10;;;;;;;;;;;3.50;78.50;;;;;;5044593;28;92157;-39
2022/12/02 12:54:35;;;;;;;;;;;3.40;79.40;;;;;;5040639;28;93071;-39
2022/12/02 12:57:01;;;;;;;;;;;3.40;79.10;;;;;;5041847;28;91796;-39
2022/12/02 12:59:26;;;;;;;;;;;3.40;79.20;;;;;;5041026;28;91929;-40
2022/12/02 13:01:52;;;;;;;;;;;3.40;79.20;;;;;;5040735;28;92983;-39
2022/12/02 13:04:17;;;;;;;;;;;3.40;79.10;;;;;;5040690;28;93100;-39
2022/12/02 13:06:45;;;;;;;;;;;3.40;79.10;;;;;;5040468;27;93141;-39
2022/12/02 13:09:11;;;;;;;;;;;3.40;79.20;;;;;;5040350;28;94763;-39
2022/12/02 13:11:36;;;;;;;;;;;3.30;79.50;;;;;;5040849;28;92474;-39
2022/12/02 13:14:02;;;;;;;;;;;3.40;79.60;;;;;;5042114;28;95417;-39
2022/12/02 13:16:28;;;;;;;;;;;3.40;79.50;;;;;;5040932;28;92113;-39
2022/12/02 13:18:53;;;;;;;;;;;3.40;79.50;;;;;;5040978;27;92362;-39
2022/12/02 13:21:19;;;;;;;;;;;3.30;79.60;;;;;;5040959;28;92398;-39
2022/12/02 13:23:44;;;;;;;;;;;3.40;79.60;;;;;;5040802;28;92223;-39
2022/12/02 13:26:10;;;;;;;;;;;3.30;79.70;;;;;;5040904;28;92273;-39
2022/12/02 13:28:35;;;;;;;;;;;3.30;79.70;;;;;;5039880;28;93957;-40
2022/12/02 13:31:01;;;;;;;;;;;3.30;79.80;;;;;;5040873;28;92164;-39
2022/12/02 13:33:26;;;;;;;;;;;3.30;79.90;;;;;;5043174;28;92396;-39
2022/12/02 13:35:52;;;;;;;;;;;3.30;79.80;;;;;;5040726;28;92023;-39
2022/12/02 13:38:17;;;;;;;;;;;3.30;79.90;;;;;;5040488;28;92399;-39
2022/12/02 13:40:43;;;;;;;;;;;3.30;80.00;;;;;;5039923;28;94350;-40
2022/12/02 13:43:08;;;;;;;;;;;3.40;80.00;;;;;;5040556;28;92171;-40
2022/12/02 13:45:34;;;;;;;;;;;3.30;80.00;;;;;;5040589;28;92334;-40
2022/12/02 13:48:00;;;;;;;;;;;3.30;80.00;;;;;;5039983;28;93011;-39
2022/12/02 13:50:26;;;;;;;;;;;3.40;80.10;;;;;;5040004;28;92181;-39
2022/12/02 13:52:51;;;;;;;;;;;3.40;79.90;;;;;;5039686;28;93564;-39
2022/12/02 13:55:17;;;;;;;;;;;3.30;80.00;;;;;;5043210;28;93274;-39
2022/12/02 13:57:42;;;;;;;;;;;3.30;80.00;;;;;;5040434;28;92503;-40
2022/12/02 14:00:09;;;;;;;;;;;3.40;80.10;;;;;;5039555;28;93099;-39
2022/12/02 14:02:35;;;;;;;;;;;3.30;80.00;;;;;;5040124;28;91814;-39
2022/12/02 14:05:00;;;;;;;;;;;3.40;80.20;;;;;;5040143;28;92342;-39
2022/12/02 14:07:26;;;;;;;;;;;3.30;80.10;;;;;;5039616;28;93166;-39
2022/12/02 14:09:51;;;;;;;;;;;3.30;80.10;;;;;;5040421;28;91426;-39
2022/12/02 14:12:17;;;;;;;;;;;3.30;80.20;;;;;;5040096;28;92292;-39
2022/12/02 14:14:42;;;;;;;;;;;3.40;80.20;;;;;;5039302;28;94476;-39
2022/12/02 14:17:08;;;;;;;;;;;3.40;80.30;;;;;;5042114;27;94222;-39
2022/12/02 14:19:33;;;;;;;;;;;3.40;80.10;;;;;;5038237;28;93335;-39
2022/12/02 14:21:59;;;;;;;;;;;3.40;80.30;;;;;;5040176;28;92142;-39
2022/12/02 14:24:24;;;;;;;;;;;3.30;80.30;;;;;;5039636;28;92408;-39
2022/12/02 14:26:50;;;;;;;;;;;3.40;80.30;;;;;;5039412;28;93360;-39
2022/12/02 14:29:15;;;;;;;;;;;3.30;80.40;;;;;;5039913;28;92391;-39
2022/12/02 14:31:40;;;;;;;;;;;3.40;80.40;;;;;;5039784;28;92459;-39
2022/12/02 14:34:06;;;;;;;;;;;3.30;80.40;;;;;;5039810;28;92305;-39